sensor_id;sensor_type;location;lat;lon;timestamp;P1;durP1;ratioP1;P2;durP2;ratioP2
22861;SDS011;11598;50.652;6.172;2023-05-10T00:08:43;101.25;;;21.35;;
22861;SDS011;11598;50.652;6.172;2023-05-10T00:18:45;49.50;;;21.05;;
22861;SDS011;11598;50.652;6.172;2023-05-10T00:28:45;90.65;;;22.83;;
22861;SDS011;11598;50.652;6.172;2023-05-10T00:38:46;89.50;;;22.25;;
22861;SDS011;11598;50.652;6.172;2023-05-10T00:48:46;40.50;;;16.20;;
22861;SDS011;11598;50.652;6.172;2023-05-10T00:58:47;22.87;;;12.03;;
22861;SDS011;11598;50.652;6.172;2023-05-10T01:08:47;32.45;;;11.20;;
22861;SDS011;11598;50.652;6.172;2023-05-10T01:18:47;12.35;;;6.57;;
22861;SDS011;11598;50.652;6.172;2023-05-10T01:38:55;17.83;;;9.67;;
22861;SDS011;11598;50.652;6.172;2023-05-10T01:48:57;38.63;;;12.32;;
22861;SDS011;11598;50.652;6.172;2023-05-10T01:58:59;31.70;;;11.00;;
22861;SDS011;11598;50.652;6.172;2023-05-10T02:09:02;36.75;;;9.93;;
22861;SDS011;11598;50.652;6.172;2023-05-10T02:19:03;18.02;;;6.15;;
22861;SDS011;11598;50.652;6.172;2023-05-10T02:29:04;21.65;;;9.75;;
22861;SDS011;11598;50.652;6.172;2023-05-10T02:39:06;47.05;;;13.77;;
22861;SDS011;11598;50.652;6.172;2023-05-10T02:49:12;58.70;;;18.63;;
22861;SDS011;11598;50.652;6.172;2023-05-10T02:59:13;70.43;;;20.55;;
22861;SDS011;11598;50.652;6.172;2023-05-10T03:09:13;81.45;;;21.83;;
22861;SDS011;11598;50.652;6.172;2023-05-10T03:19:30;59.67;;;17.92;;
22861;SDS011;11598;50.652;6.172;2023-05-10T03:29:34;105.80;;;20.10;;
22861;SDS011;11598;50.652;6.172;2023-05-10T03:39:36;62.00;;;16.63;;
22861;SDS011;11598;50.652;6.172;2023-05-10T03:49:36;56.28;;;15.43;;
22861;SDS011;11598;50.652;6.172;2023-05-10T03:59:38;60.67;;;14.43;;
22861;SDS011;11598;50.652;6.172;2023-05-10T04:09:38;45.70;;;12.45;;
22861;SDS011;11598;50.652;6.172;2023-05-10T04:19:38;45.83;;;12.45;;
22861;SDS011;11598;50.652;6.172;2023-05-10T04:29:39;37.38;;;11.15;;
22861;SDS011;11598;50.652;6.172;2023-05-10T04:39:39;37.72;;;11.07;;
22861;SDS011;11598;50.652;6.172;2023-05-10T04:49:40;41.72;;;10.77;;
22861;SDS011;11598;50.652;6.172;2023-05-10T04:59:40;56.13;;;11.52;;
22861;SDS011;11598;50.652;6.172;2023-05-10T05:09:40;54.30;;;9.68;;
22861;SDS011;11598;50.652;6.172;2023-05-10T05:19:41;41.30;;;7.95;;
22861;SDS011;11598;50.652;6.172;2023-05-10T05:29:41;45.30;;;7.20;;
22861;SDS011;11598;50.652;6.172;2023-05-10T05:39:41;61.40;;;7.38;;
22861;SDS011;11598;50.652;6.172;2023-05-10T05:49:42;36.20;;;4.97;;
22861;SDS011;11598;50.652;6.172;2023-05-10T05:59:45;14.37;;;4.33;;
22861;SDS011;11598;50.652;6.172;2023-05-10T06:09:46;10.60;;;3.83;;
22861;SDS011;11598;50.652;6.172;2023-05-10T06:19:46;12.55;;;4.60;;
22861;SDS011;11598;50.652;6.172;2023-05-10T06:29:46;14.55;;;3.17;;
22861;SDS011;11598;50.652;6.172;2023-05-10T06:39:47;11.60;;;2.25;;
22861;SDS011;11598;50.652;6.172;2023-05-10T06:49:47;7.75;;;1.80;;
22861;SDS011;11598;50.652;6.172;2023-05-10T06:59:48;7.88;;;2.17;;
22861;SDS011;11598;50.652;6.172;2023-05-10T07:09:48;8.57;;;2.58;;
22861;SDS011;11598;50.652;6.172;2023-05-10T07:19:49;10.65;;;3.08;;
22861;SDS011;11598;50.652;6.172;2023-05-10T07:29:50;8.75;;;4.55;;
22861;SDS011;11598;50.652;6.172;2023-05-10T07:39:50;15.70;;;5.40;;
22861;SDS011;11598;50.652;6.172;2023-05-10T07:49:51;18.45;;;6.03;;
22861;SDS011;11598;50.652;6.172;2023-05-10T07:59:51;8.65;;;2.85;;
22861;SDS011;11598;50.652;6.172;2023-05-10T08:09:51;5.70;;;2.20;;
22861;SDS011;11598;50.652;6.172;2023-05-10T08:19:52;4.80;;;2.10;;
22861;SDS011;11598;50.652;6.172;2023-05-10T08:29:52;8.65;;;2.63;;
22861;SDS011;11598;50.652;6.172;2023-05-10T08:39:52;5.10;;;2.30;;
22861;SDS011;11598;50.652;6.172;2023-05-10T08:49:53;4.93;;;1.90;;
22861;SDS011;11598;50.652;6.172;2023-05-10T08:59:54;6.05;;;1.20;;
22861;SDS011;11598;50.652;6.172;2023-05-10T09:09:54;1.90;;;0.70;;
22861;SDS011;11598;50.652;6.172;2023-05-10T09:19:59;1.05;;;0.40;;
22861;SDS011;11598;50.652;6.172;2023-05-10T09:30:00;10.20;;;2.90;;
22861;SDS011;11598;50.652;6.172;2023-05-10T09:40:03;1.83;;;0.80;;
22861;SDS011;11598;50.652;6.172;2023-05-10T09:50:05;4.20;;;1.17;;
22861;SDS011;11598;50.652;6.172;2023-05-10T10:00:06;2.67;;;1.45;;
22861;SDS011;11598;50.652;6.172;2023-05-10T10:10:07;4.07;;;2.00;;
22861;SDS011;11598;50.652;6.172;2023-05-10T10:20:11;5.25;;;2.05;;
22861;SDS011;11598;50.652;6.172;2023-05-10T10:40:23;3.30;;;1.90;;
22861;SDS011;11598;50.652;6.172;2023-05-10T10:50:25;4.32;;;1.08;;
22861;SDS011;11598;50.652;6.172;2023-05-10T11:10:35;3.38;;;1.40;;
22861;SDS011;11598;50.652;6.172;2023-05-10T11:20:39;4.68;;;1.60;;
22861;SDS011;11598;50.652;6.172;2023-05-10T11:30:40;7.20;;;2.00;;
22861;SDS011;11598;50.652;6.172;2023-05-10T11:40:41;5.13;;;2.15;;
22861;SDS011;11598;50.652;6.172;2023-05-10T11:50:43;4.15;;;1.90;;
22861;SDS011;11598;50.652;6.172;2023-05-10T12:00:44;5.78;;;2.50;;
22861;SDS011;11598;50.652;6.172;2023-05-10T12:10:45;4.95;;;2.75;;
22861;SDS011;11598;50.652;6.172;2023-05-10T12:20:45;3.78;;;2.30;;
22861;SDS011;11598;50.652;6.172;2023-05-10T12:30:46;4.60;;;2.60;;
22861;SDS011;11598;50.652;6.172;2023-05-10T12:40:46;3.35;;;1.95;;
22861;SDS011;11598;50.652;6.172;2023-05-10T12:50:47;3.33;;;1.50;;
22861;SDS011;11598;50.652;6.172;2023-05-10T13:00:47;6.03;;;2.72;;
22861;SDS011;11598;50.652;6.172;2023-05-10T13:10:48;4.82;;;2.40;;
22861;SDS011;11598;50.652;6.172;2023-05-10T13:20:48;6.77;;;3.07;;
22861;SDS011;11598;50.652;6.172;2023-05-10T13:30:49;9.02;;;3.17;;
22861;SDS011;11598;50.652;6.172;2023-05-10T13:40:50;7.40;;;3.97;;
22861;SDS011;11598;50.652;6.172;2023-05-10T13:50:52;5.82;;;3.35;;
22861;SDS011;11598;50.652;6.172;2023-05-10T14:00:52;7.13;;;2.58;;
22861;SDS011;11598;50.652;6.172;2023-05-10T14:10:53;4.70;;;2.33;;
22861;SDS011;11598;50.652;6.172;2023-05-10T14:20:53;3.55;;;1.70;;
22861;SDS011;11598;50.652;6.172;2023-05-10T14:30:54;4.45;;;1.40;;
22861;SDS011;11598;50.652;6.172;2023-05-10T14:40:54;4.53;;;1.10;;
22861;SDS011;11598;50.652;6.172;2023-05-10T14:50:55;2.60;;;0.80;;
22861;SDS011;11598;50.652;6.172;2023-05-10T15:00:55;2.83;;;0.90;;
22861;SDS011;11598;50.652;6.172;2023-05-10T15:10:56;2.88;;;1.35;;
22861;SDS011;11598;50.652;6.172;2023-05-10T15:20:57;3.13;;;1.13;;
22861;SDS011;11598;50.652;6.172;2023-05-10T15:30:58;3.70;;;1.30;;
22861;SDS011;11598;50.652;6.172;2023-05-10T15:40:58;4.53;;;2.20;;
22861;SDS011;11598;50.652;6.172;2023-05-10T15:50:59;6.65;;;3.00;;
22861;SDS011;11598;50.652;6.172;2023-05-10T16:00:59;11.60;;;3.30;;
22861;SDS011;11598;50.652;6.172;2023-05-10T16:10:59;6.68;;;3.60;;
22861;SDS011;11598;50.652;6.172;2023-05-10T16:21:00;7.53;;;3.58;;
22861;SDS011;11598;50.652;6.172;2023-05-10T16:31:01;8.05;;;3.60;;
22861;SDS011;11598;50.652;6.172;2023-05-10T16:41:01;5.88;;;3.45;;
22861;SDS011;11598;50.652;6.172;2023-05-10T16:51:02;6.22;;;3.83;;
22861;SDS011;11598;50.652;6.172;2023-05-10T17:01:03;9.50;;;4.47;;
22861;SDS011;11598;50.652;6.172;2023-05-10T17:11:04;8.82;;;4.95;;
22861;SDS011;11598;50.652;6.172;2023-05-10T17:21:04;7.97;;;4.32;;
22861;SDS011;11598;50.652;6.172;2023-05-10T17:31:04;9.30;;;4.80;;
22861;SDS011;11598;50.652;6.172;2023-05-10T17:41:05;9.63;;;4.75;;
22861;SDS011;11598;50.652;6.172;2023-05-10T17:51:06;7.25;;;4.05;;
22861;SDS011;11598;50.652;6.172;2023-05-10T18:01:06;4.82;;;2.65;;
22861;SDS011;11598;50.652;6.172;2023-05-10T18:11:07;6.90;;;2.30;;
22861;SDS011;11598;50.652;6.172;2023-05-10T18:21:07;6.43;;;1.80;;
22861;SDS011;11598;50.652;6.172;2023-05-10T18:31:08;5.25;;;2.13;;
22861;SDS011;11598;50.652;6.172;2023-05-10T18:41:08;6.40;;;1.90;;
22861;SDS011;11598;50.652;6.172;2023-05-10T18:51:11;5.35;;;2.35;;
22861;SDS011;11598;50.652;6.172;2023-05-10T19:01:11;6.70;;;2.90;;
22861;SDS011;11598;50.652;6.172;2023-05-10T19:11:12;8.80;;;3.25;;
22861;SDS011;11598;50.652;6.172;2023-05-10T19:21:12;7.13;;;2.88;;
22861;SDS011;11598;50.652;6.172;2023-05-10T19:31:12;4.75;;;2.55;;
22861;SDS011;11598;50.652;6.172;2023-05-10T19:41:13;3.58;;;1.67;;
22861;SDS011;11598;50.652;6.172;2023-05-10T19:51:13;4.25;;;1.90;;
22861;SDS011;11598;50.652;6.172;2023-05-10T20:01:14;5.03;;;2.65;;
22861;SDS011;11598;50.652;6.172;2023-05-10T20:11:14;6.30;;;2.80;;
22861;SDS011;11598;50.652;6.172;2023-05-10T20:21:15;4.28;;;2.00;;
22861;SDS011;11598;50.652;6.172;2023-05-10T20:31:15;6.47;;;2.97;;
22861;SDS011;11598;50.652;6.172;2023-05-10T20:41:15;6.57;;;3.70;;
22861;SDS011;11598;50.652;6.172;2023-05-10T20:51:16;15.95;;;6.65;;
22861;SDS011;11598;50.652;6.172;2023-05-10T21:01:17;18.65;;;9.27;;
22861;SDS011;11598;50.652;6.172;2023-05-10T21:11:18;21.48;;;12.02;;
22861;SDS011;11598;50.652;6.172;2023-05-10T21:21:18;25.85;;;12.98;;
22861;SDS011;11598;50.652;6.172;2023-05-10T21:31:18;27.80;;;13.15;;
22861;SDS011;11598;50.652;6.172;2023-05-10T21:41:19;28.27;;;9.85;;
22861;SDS011;11598;50.652;6.172;2023-05-10T21:51:20;21.85;;;11.73;;
22861;SDS011;11598;50.652;6.172;2023-05-10T22:01:21;14.60;;;6.17;;
22861;SDS011;11598;50.652;6.172;2023-05-10T22:11:21;7.10;;;2.72;;
22861;SDS011;11598;50.652;6.172;2023-05-10T22:21:22;3.50;;;1.17;;
22861;SDS011;11598;50.652;6.172;2023-05-10T22:31:22;4.28;;;0.88;;
22861;SDS011;11598;50.652;6.172;2023-05-10T22:41:22;1.67;;;0.60;;
22861;SDS011;11598;50.652;6.172;2023-05-10T22:51:23;3.25;;;0.60;;
22861;SDS011;11598;50.652;6.172;2023-05-10T23:01:23;5.50;;;0.90;;
22861;SDS011;11598;50.652;6.172;2023-05-10T23:11:24;1.67;;;0.75;;
22861;SDS011;11598;50.652;6.172;2023-05-10T23:21:25;2.88;;;0.98;;
22861;SDS011;11598;50.652;6.172;2023-05-10T23:31:25;1.95;;;0.60;;
22861;SDS011;11598;50.652;6.172;2023-05-10T23:41:25;3.35;;;1.00;;
22861;SDS011;11598;50.652;6.172;2023-05-10T23:51:26;1.52;;;0.60;;
